createdAt,value
2019-03-30T00:00:56.161Z,10.17
2019-03-30T00:03:25.765Z,10.16
2019-03-30T00:05:58.118Z,10.02
2019-03-30T00:08:28.047Z,9.91
2019-03-30T00:10:57.998Z,9.96
2019-03-30T00:13:27.581Z,9.84
2019-03-30T00:15:57.511Z,9.81
2019-03-30T00:18:27.150Z,9.92
2019-03-30T00:20:56.938Z,9.83
2019-03-30T00:23:26.765Z,9.79
2019-03-30T00:25:57.270Z,9.73
2019-03-30T00:28:26.913Z,9.78
2019-03-30T00:30:58.337Z,9.77
2019-03-30T00:33:28.332Z,9.76
2019-03-30T00:35:57.929Z,9.70
2019-03-30T00:38:27.651Z,9.70
2019-03-30T00:40:57.282Z,9.61
2019-03-30T00:43:27.206Z,9.57
2019-03-30T00:45:57.319Z,9.56
2019-03-30T00:48:26.917Z,9.55
2019-03-30T00:50:56.708Z,9.57
2019-03-30T00:53:26.665Z,9.64
2019-03-30T00:55:56.382Z,9.53
2019-03-30T00:58:26.720Z,9.48
2019-03-30T01:00:56.347Z,9.44
2019-03-30T01:03:29.296Z,9.38
2019-03-30T01:05:58.957Z,9.49
2019-03-30T01:08:28.878Z,9.25
2019-03-30T01:10:58.444Z,9.20
2019-03-30T01:13:28.064Z,9.09
2019-03-30T01:15:57.638Z,9.07
2019-03-30T01:18:27.218Z,9.16
2019-03-30T01:20:56.998Z,9.26
2019-03-30T01:23:26.865Z,9.38
2019-03-30T01:25:56.504Z,9.77
2019-03-30T01:28:26.159Z,9.62
2019-03-30T01:30:55.802Z,9.52
2019-03-30T01:33:25.438Z,9.53
2019-03-30T01:35:55.177Z,9.49
2019-03-30T01:38:25.123Z,9.42
2019-03-30T01:40:54.863Z,9.43
2019-03-30T01:43:24.455Z,9.43
2019-03-30T01:45:54.244Z,9.44
2019-03-30T01:48:24.183Z,9.48
2019-03-30T01:50:53.904Z,9.50
2019-03-30T01:53:23.501Z,9.53
2019-03-30T01:55:53.211Z,9.47
2019-03-30T01:58:22.763Z,9.56
2019-03-30T02:00:52.887Z,9.56
2019-03-30T02:03:22.805Z,9.86
2019-03-30T02:05:52.459Z,9.79
2019-03-30T02:08:22.114Z,9.77
2019-03-30T02:10:51.690Z,9.63
2019-03-30T02:13:21.299Z,9.61
2019-03-30T02:15:51.049Z,9.83
2019-03-30T02:18:20.639Z,9.84
2019-03-30T02:20:50.585Z,9.80
2019-03-30T02:23:20.533Z,9.90
2019-03-30T02:25:50.229Z,9.95
2019-03-30T02:28:19.887Z,10.02
2019-03-30T02:30:49.496Z,9.99
2019-03-30T02:33:19.383Z,10.06
2019-03-30T02:35:48.956Z,10.07
2019-03-30T02:38:18.566Z,10.09
2019-03-30T02:40:48.548Z,10.15
2019-03-30T02:43:18.464Z,10.11
2019-03-30T02:45:48.562Z,10.13
2019-03-30T02:48:18.273Z,10.10
2019-03-30T02:50:50.537Z,10.13
2019-03-30T02:53:20.281Z,10.20
2019-03-30T02:55:50.185Z,10.24
2019-03-30T02:58:19.804Z,10.25
2019-03-30T03:00:49.502Z,10.30
2019-03-30T03:03:19.797Z,10.37
2019-03-30T03:05:49.359Z,10.39
2019-03-30T03:08:19.421Z,10.44
2019-03-30T03:10:49.062Z,10.45
2019-03-30T03:13:18.663Z,10.53
2019-03-30T03:15:48.280Z,10.59
2019-03-30T03:18:18.238Z,10.58
2019-03-30T03:21:06.213Z,10.58
2019-03-30T03:23:19.256Z,10.60
2019-03-30T03:25:48.883Z,10.61
2019-03-30T03:28:18.514Z,10.71
2019-03-30T03:30:48.113Z,10.74
2019-03-30T03:33:18.485Z,10.75
2019-03-30T03:35:48.087Z,10.80
2019-03-30T03:38:17.757Z,10.78
2019-03-30T03:40:47.331Z,10.75
2019-03-30T03:43:17.243Z,10.75
2019-03-30T03:45:47.459Z,10.76
2019-03-30T03:48:17.161Z,10.79
2019-03-30T03:50:48.497Z,10.73
2019-03-30T03:53:18.663Z,10.46
2019-03-30T03:55:48.786Z,10.65
2019-03-30T03:58:19.085Z,10.66
2019-03-30T04:00:48.814Z,10.63
2019-03-30T04:03:19.056Z,10.63
2019-03-30T04:05:49.146Z,10.65
2019-03-30T04:08:18.735Z,10.90
2019-03-30T04:10:52.236Z,10.88
2019-03-30T04:13:22.107Z,10.87
2019-03-30T04:15:52.052Z,11.21
2019-03-30T04:18:21.766Z,11.06
2019-03-30T04:20:51.425Z,10.95
2019-03-30T04:23:21.416Z,10.82
2019-03-30T04:25:51.635Z,10.75
2019-03-30T04:28:21.441Z,10.67
2019-03-30T04:30:51.774Z,10.89
2019-03-30T04:33:21.782Z,11.14
2019-03-30T04:35:51.375Z,11.02
2019-03-30T04:38:21.377Z,10.70
2019-03-30T04:40:51.058Z,10.58
2019-03-30T04:43:20.637Z,10.90
2019-03-30T04:45:50.219Z,10.79
2019-03-30T04:48:19.853Z,10.47
2019-03-30T04:50:49.445Z,10.32
2019-03-30T04:53:19.477Z,10.09
2019-03-30T04:55:49.057Z,9.95
2019-03-30T04:58:18.662Z,9.88
2019-03-30T05:00:49.421Z,9.67
2019-03-30T05:03:19.003Z,9.55
2019-03-30T05:05:48.723Z,9.38
2019-03-30T05:08:18.325Z,9.33
2019-03-30T05:10:48.776Z,9.22
2019-03-30T05:13:18.687Z,9.23
2019-03-30T05:15:48.746Z,9.36
2019-03-30T05:18:18.392Z,9.28
2019-03-30T05:20:47.982Z,9.32
2019-03-30T05:23:17.665Z,9.35
2019-03-30T05:25:47.378Z,9.28
2019-03-30T05:28:16.981Z,9.19
2019-03-30T05:30:46.645Z,9.14
2019-03-30T05:33:17.005Z,9.10
2019-03-30T05:35:47.005Z,9.06
2019-03-30T05:38:16.625Z,8.99
2019-03-30T05:40:46.340Z,8.96
2019-03-30T05:43:15.944Z,8.92
2019-03-30T05:45:45.627Z,8.88
2019-03-30T05:48:15.735Z,8.93
2019-03-30T05:50:45.788Z,8.90
2019-03-30T05:53:15.373Z,8.87
2019-03-30T05:55:45.342Z,8.82
2019-03-30T05:58:14.996Z,8.86
2019-03-30T06:00:44.679Z,8.83
2019-03-30T06:03:14.905Z,8.80
2019-03-30T06:05:44.523Z,8.81
2019-03-30T06:08:14.581Z,8.78
2019-03-30T06:10:44.283Z,8.82
2019-03-30T06:13:14.019Z,8.73
2019-03-30T06:15:43.620Z,8.71
2019-03-30T06:18:14.050Z,8.75
2019-03-30T06:20:44.021Z,8.83
2019-03-30T06:23:13.617Z,8.80
2019-03-30T06:25:43.817Z,8.89
2019-03-30T06:28:13.459Z,8.88
2019-03-30T06:30:43.079Z,8.93
2019-03-30T06:33:13.120Z,9.03
2019-03-30T06:35:42.779Z,8.99
2019-03-30T06:38:12.345Z,9.07
2019-03-30T06:40:41.941Z,9.30
2019-03-30T06:43:11.641Z,9.26
2019-03-30T06:45:41.633Z,9.26
2019-03-30T06:48:11.266Z,9.29
2019-03-30T06:50:40.865Z,9.36
2019-03-30T06:53:10.479Z,9.51
2019-03-30T06:55:40.193Z,9.69
2019-03-30T06:58:09.827Z,9.78
2019-03-30T07:00:39.752Z,9.78
2019-03-30T07:03:09.418Z,9.87
2019-03-30T07:05:43.240Z,9.96
2019-03-30T07:08:17.976Z,9.96
2019-03-30T07:10:48.397Z,9.98
2019-03-30T07:13:19.343Z,9.85
2019-03-30T07:15:50.305Z,10.08
2019-03-30T07:18:20.412Z,10.12
2019-03-30T07:20:50.871Z,10.18
2019-03-30T07:23:20.954Z,10.42
2019-03-30T07:25:50.761Z,10.36
2019-03-30T07:28:20.998Z,10.36
2019-03-30T07:30:50.569Z,10.70
2019-03-30T07:33:20.301Z,10.57
2019-03-30T07:35:49.973Z,10.67
2019-03-30T07:38:20.049Z,10.94
2019-03-30T07:40:49.639Z,10.84
2019-03-30T07:43:20.173Z,10.82
2019-03-30T07:45:49.793Z,10.95
2019-03-30T07:48:19.765Z,11.08
2019-03-30T07:50:49.407Z,11.07
2019-03-30T07:53:26.285Z,11.31
2019-03-30T07:55:50.827Z,11.46
2019-03-30T07:58:20.787Z,11.56
2019-03-30T08:00:50.805Z,11.52
2019-03-30T08:03:20.789Z,11.68
2019-03-30T08:05:50.366Z,11.92
2019-03-30T08:08:20.127Z,12.07
2019-03-30T08:10:49.787Z,12.41
2019-03-30T08:13:19.401Z,12.52
2019-03-30T08:15:49.019Z,12.74
2019-03-30T08:18:18.641Z,12.49
2019-03-30T08:20:48.273Z,12.39
2019-03-30T08:23:18.499Z,12.58
2019-03-30T08:25:48.282Z,12.80
2019-03-30T08:28:18.734Z,13.09
2019-03-30T08:30:49.079Z,12.93
2019-03-30T08:33:18.769Z,13.26
2019-03-30T08:35:48.423Z,13.24
2019-03-30T08:38:18.506Z,13.16
2019-03-30T08:40:48.655Z,13.41
2019-03-30T08:43:18.332Z,13.62
2019-03-30T08:45:49.036Z,13.68
2019-03-30T08:48:18.824Z,14.61
2019-03-30T08:50:48.766Z,14.61
2019-03-30T08:53:18.383Z,14.74
2019-03-30T08:55:48.003Z,16.09
2019-03-30T08:58:17.587Z,17.82
2019-03-30T09:00:47.201Z,18.50
2019-03-30T09:03:17.160Z,19.16
2019-03-30T09:05:46.758Z,19.55
2019-03-30T09:08:16.464Z,19.51
2019-03-30T09:10:46.073Z,20.24
2019-03-30T09:13:15.729Z,20.33
2019-03-30T09:15:45.656Z,20.99
2019-03-30T09:18:15.671Z,20.56
2019-03-30T09:20:45.620Z,21.09
2019-03-30T09:23:16.262Z,21.23
2019-03-30T09:25:45.941Z,21.75
2019-03-30T09:28:15.759Z,22.38
2019-03-30T09:30:45.695Z,22.84
2019-03-30T09:33:15.529Z,22.13
2019-03-30T09:35:45.173Z,22.89
2019-03-30T09:38:15.095Z,23.09
2019-03-30T09:40:44.717Z,24.35
2019-03-30T09:43:14.518Z,23.81
2019-03-30T09:45:44.458Z,23.61
2019-03-30T09:48:14.126Z,23.02
2019-03-30T09:50:43.868Z,22.84
2019-03-30T09:53:13.672Z,23.72
2019-03-30T09:55:44.776Z,23.99
2019-03-30T09:58:14.476Z,23.70
2019-03-30T10:00:44.770Z,22.87
2019-03-30T10:03:14.582Z,22.92
2019-03-30T10:05:44.316Z,23.60
2019-03-30T10:08:14.029Z,24.44
2019-03-30T10:10:44.133Z,25.41
2019-03-30T10:13:14.586Z,26.27
2019-03-30T10:15:45.124Z,25.23
2019-03-30T10:18:14.783Z,25.85
2019-03-30T10:20:44.405Z,27.20
2019-03-30T10:23:14.056Z,27.32
2019-03-30T10:25:44.028Z,26.24
2019-03-30T10:28:13.730Z,25.75
2019-03-30T10:30:43.512Z,25.98
2019-03-30T10:33:14.214Z,26.87
2019-03-30T10:35:43.792Z,27.26
2019-03-30T10:38:13.549Z,25.63
2019-03-30T10:40:43.336Z,26.81
2019-03-30T10:43:13.374Z,26.16
2019-03-30T10:45:43.136Z,25.95
2019-03-30T10:48:13.349Z,25.70
2019-03-30T10:50:42.982Z,26.67
2019-03-30T10:53:12.906Z,25.90
2019-03-30T10:55:42.722Z,25.60
2019-03-30T10:58:12.934Z,25.84
2019-03-30T11:00:42.528Z,25.29
2019-03-30T11:03:12.235Z,24.15
2019-03-30T11:05:41.942Z,24.63
2019-03-30T11:08:11.615Z,24.83
2019-03-30T11:10:41.264Z,25.78
2019-03-30T11:13:10.924Z,26.46
2019-03-30T11:15:40.524Z,26.41
2019-03-30T11:18:10.247Z,26.30
2019-03-30T11:20:40.182Z,26.75
2019-03-30T11:23:10.170Z,26.08
2019-03-30T11:25:40.144Z,26.59
2019-03-30T11:28:10.346Z,26.16
2019-03-30T11:30:39.989Z,26.18
2019-03-30T11:33:09.686Z,26.64
2019-03-30T11:35:39.327Z,26.35
2019-03-30T11:38:08.924Z,27.30
2019-03-30T11:40:38.566Z,27.39
2019-03-30T11:43:08.239Z,27.57
2019-03-30T11:45:37.864Z,25.91
2019-03-30T11:48:07.880Z,26.64
2019-03-30T11:50:37.544Z,27.29
2019-03-30T11:53:07.166Z,26.89
2019-03-30T11:55:36.902Z,27.31
2019-03-30T11:58:06.903Z,27.34
2019-03-30T12:00:36.751Z,25.43
2019-03-30T12:03:06.411Z,25.43
2019-03-30T12:05:36.089Z,24.75
2019-03-30T12:08:05.755Z,23.71
2019-03-30T12:10:36.303Z,25.08
2019-03-30T12:13:06.694Z,24.92
2019-03-30T12:15:37.950Z,25.48
2019-03-30T12:18:07.558Z,26.02
2019-03-30T12:20:37.164Z,25.77
2019-03-30T12:23:06.806Z,25.64
2019-03-30T12:25:36.445Z,26.26
2019-03-30T12:28:06.159Z,26.76
2019-03-30T12:30:35.765Z,26.84
2019-03-30T12:33:05.782Z,26.00
2019-03-30T12:35:39.011Z,26.83
2019-03-30T12:38:08.940Z,26.72
2019-03-30T12:40:38.852Z,26.29
2019-03-30T12:43:08.521Z,25.12
2019-03-30T12:45:38.529Z,24.93
2019-03-30T12:48:08.668Z,24.69
2019-03-30T12:50:38.411Z,25.46
2019-03-30T12:53:08.378Z,25.70
2019-03-30T12:55:48.590Z,24.86
2019-03-30T12:58:09.486Z,25.34
2019-03-30T13:00:39.072Z,24.97
2019-03-30T13:03:08.780Z,25.77
2019-03-30T13:05:38.531Z,25.28
2019-03-30T13:08:08.125Z,25.57
2019-03-30T13:10:37.862Z,25.42
2019-03-30T13:13:07.430Z,25.54
2019-03-30T13:15:37.135Z,25.84
2019-03-30T13:18:07.127Z,25.80
2019-03-30T13:20:37.884Z,24.54
2019-03-30T13:23:07.553Z,24.67
2019-03-30T13:25:37.254Z,24.09
2019-03-30T13:28:07.104Z,23.43
2019-03-30T13:30:36.764Z,24.80
2019-03-30T13:33:06.687Z,25.53
2019-03-30T13:35:36.312Z,25.75
2019-03-30T13:38:06.009Z,25.48
2019-03-30T13:40:36.034Z,25.60
2019-03-30T13:43:05.673Z,25.53
2019-03-30T13:45:35.350Z,24.71
2019-03-30T13:48:05.101Z,24.73
2019-03-30T13:50:35.119Z,25.00
2019-03-30T13:53:04.794Z,24.98
2019-03-30T13:55:34.722Z,25.47
2019-03-30T13:58:04.369Z,26.15
2019-03-30T14:00:36.638Z,25.81
2019-03-30T14:03:06.531Z,26.56
2019-03-30T14:05:36.197Z,25.61
2019-03-30T14:08:06.052Z,25.41
2019-03-30T14:10:38.860Z,25.39
2019-03-30T14:13:07.204Z,25.78
2019-03-30T14:15:37.131Z,24.94
2019-03-30T14:18:06.830Z,24.63
2019-03-30T14:20:36.435Z,24.98
2019-03-30T14:23:06.054Z,25.13
2019-03-30T14:25:35.950Z,25.30
2019-03-30T14:28:05.649Z,25.22
2019-03-30T14:30:35.351Z,24.55
2019-03-30T14:33:05.243Z,23.88
2019-03-30T14:35:35.184Z,23.41
2019-03-30T14:38:05.712Z,23.83
2019-03-30T14:40:35.321Z,23.74
2019-03-30T14:43:05.007Z,23.64
2019-03-30T14:45:34.899Z,23.45
2019-03-30T14:48:04.843Z,23.16
2019-03-30T14:50:34.752Z,23.11
2019-03-30T14:53:05.024Z,23.13
2019-03-30T14:55:34.694Z,22.67
2019-03-30T14:58:04.676Z,23.00
2019-03-30T15:00:34.675Z,23.26
2019-03-30T15:03:04.380Z,23.01
2019-03-30T15:05:34.680Z,22.43
2019-03-30T15:08:04.324Z,22.32
2019-03-30T15:10:33.932Z,21.61
2019-03-30T15:13:03.561Z,21.69
2019-03-30T15:15:33.174Z,21.80
2019-03-30T15:18:03.018Z,21.99
2019-03-30T15:20:32.988Z,22.01
2019-03-30T15:23:02.907Z,22.05
2019-03-30T15:25:32.926Z,22.15
2019-03-30T15:28:02.550Z,22.26
2019-03-30T15:30:32.134Z,22.42
2019-03-30T15:33:03.493Z,22.16
2019-03-30T15:35:33.196Z,22.44
2019-03-30T15:38:02.883Z,22.78
2019-03-30T15:40:32.544Z,23.06
2019-03-30T15:43:02.419Z,22.48
2019-03-30T15:45:32.007Z,22.01
2019-03-30T15:48:01.620Z,22.26
2019-03-30T15:50:31.254Z,21.98
2019-03-30T15:53:00.877Z,21.81
2019-03-30T15:55:30.472Z,21.89
2019-03-30T15:58:00.176Z,21.72
2019-03-30T16:00:29.984Z,21.84
2019-03-30T16:02:59.585Z,21.58
2019-03-30T16:05:29.190Z,21.65
2019-03-30T16:07:58.848Z,21.67
2019-03-30T16:10:30.242Z,22.21
2019-03-30T16:12:59.843Z,22.17
2019-03-30T16:15:29.479Z,21.77
2019-03-30T16:17:59.078Z,21.24
2019-03-30T16:20:28.876Z,21.44
2019-03-30T16:22:58.781Z,21.49
2019-03-30T16:25:28.452Z,21.12
2019-03-30T16:27:58.213Z,21.27
2019-03-30T16:30:28.101Z,21.20
2019-03-30T16:32:58.049Z,21.21
2019-03-30T16:35:28.206Z,21.07
2019-03-30T16:37:57.884Z,21.01
2019-03-30T16:40:27.834Z,20.91
2019-03-30T16:42:57.936Z,20.81
2019-03-30T16:45:27.534Z,20.67
2019-03-30T16:47:57.195Z,20.42
2019-03-30T16:50:27.062Z,20.51
2019-03-30T16:52:56.732Z,20.39
2019-03-30T16:55:26.358Z,20.52
2019-03-30T16:57:56.081Z,20.26
2019-03-30T17:00:25.676Z,20.39
2019-03-30T17:02:55.624Z,20.44
2019-03-30T17:05:25.740Z,20.32
2019-03-30T17:07:55.392Z,20.28
2019-03-30T17:10:25.108Z,20.13
2019-03-30T17:12:54.756Z,20.06
2019-03-30T17:15:24.804Z,20.04
2019-03-30T17:17:54.686Z,20.06
2019-03-30T17:20:24.440Z,19.97
2019-03-30T17:22:54.165Z,19.78
2019-03-30T17:25:24.697Z,19.74
2019-03-30T17:27:58.506Z,19.66
2019-03-30T17:30:26.148Z,19.41
2019-03-30T17:32:55.790Z,19.42
2019-03-30T17:35:25.495Z,19.34
2019-03-30T17:37:55.073Z,19.18
2019-03-30T17:40:24.642Z,19.12
2019-03-30T17:42:54.268Z,18.97
2019-03-30T17:45:24.152Z,18.92
2019-03-30T17:47:53.782Z,18.82
2019-03-30T17:50:25.145Z,18.71
2019-03-30T17:52:54.792Z,18.79
2019-03-30T17:55:33.493Z,18.68
2019-03-30T17:57:56.016Z,18.53
2019-03-30T18:00:25.968Z,18.47
2019-03-30T18:02:56.006Z,18.33
2019-03-30T18:05:25.985Z,18.17
2019-03-30T18:07:55.576Z,18.05
2019-03-30T18:10:25.472Z,17.97
2019-03-30T18:12:55.095Z,17.86
2019-03-30T18:15:25.034Z,17.60
2019-03-30T18:17:56.684Z,17.66
2019-03-30T18:20:26.236Z,17.44
2019-03-30T18:22:55.851Z,17.41
2019-03-30T18:25:25.430Z,17.51
2019-03-30T18:27:55.074Z,17.48
2019-03-30T18:30:35.687Z,17.38
2019-03-30T18:33:05.686Z,17.34
2019-03-30T18:35:35.296Z,17.40
2019-03-30T18:38:04.917Z,17.06
2019-03-30T18:40:35.608Z,16.83
2019-03-30T18:43:05.392Z,16.69
2019-03-30T18:45:35.138Z,16.58
2019-03-30T18:48:15.341Z,16.39
2019-03-30T18:50:46.201Z,16.27
2019-03-30T18:53:16.820Z,15.89
2019-03-30T18:55:46.594Z,15.87
2019-03-30T18:58:16.697Z,15.80
2019-03-30T19:00:46.363Z,15.70
2019-03-30T19:03:19.868Z,15.69
2019-03-30T19:05:48.110Z,15.73
2019-03-30T19:08:17.760Z,15.73
2019-03-30T19:10:47.406Z,15.71
2019-03-30T19:13:17.466Z,15.65
2019-03-30T19:15:47.424Z,15.58
2019-03-30T19:18:17.029Z,15.46
2019-03-30T19:20:46.633Z,15.26
2019-03-30T19:23:17.362Z,15.04
2019-03-30T19:25:49.296Z,14.93
2019-03-30T19:28:19.706Z,14.94
2019-03-30T19:30:49.703Z,14.84
2019-03-30T19:33:20.695Z,14.71
2019-03-30T19:35:51.564Z,14.59
2019-03-30T19:38:21.642Z,14.43
2019-03-30T19:40:51.344Z,14.25
2019-03-30T19:43:20.943Z,14.14
2019-03-30T19:45:50.560Z,13.84
2019-03-30T19:48:20.139Z,13.71
2019-03-30T19:50:50.127Z,13.61
2019-03-30T19:53:19.944Z,13.64
2019-03-30T19:55:49.576Z,13.86
2019-03-30T19:58:19.242Z,13.86
2019-03-30T20:00:49.215Z,13.86
2019-03-30T20:03:18.946Z,13.87
2019-03-30T20:05:51.997Z,13.87
2019-03-30T20:08:22.047Z,13.88
2019-03-30T20:10:51.654Z,14.02
2019-03-30T20:13:21.677Z,13.96
2019-03-30T20:15:51.311Z,13.74
2019-03-30T20:18:21.299Z,13.56
2019-03-30T20:20:51.047Z,13.34
2019-03-30T20:23:20.981Z,13.35
2019-03-30T20:25:50.662Z,13.33
2019-03-30T20:28:20.650Z,13.49
2019-03-30T20:30:50.257Z,13.41
2019-03-30T20:33:19.892Z,13.22
2019-03-30T20:35:49.695Z,13.21
2019-03-30T20:38:19.405Z,13.15
2019-03-30T20:40:49.129Z,13.33
2019-03-30T20:43:19.149Z,13.48
2019-03-30T20:45:48.809Z,13.44
2019-03-30T20:48:18.476Z,13.37
2019-03-30T20:50:48.374Z,13.29
2019-03-30T20:53:18.019Z,13.17
2019-03-30T20:55:47.617Z,13.24
2019-03-30T20:58:17.709Z,13.20
2019-03-30T21:00:47.395Z,13.32
2019-03-30T21:03:17.307Z,13.41
2019-03-30T21:05:46.969Z,13.46
2019-03-30T21:08:19.556Z,13.52
2019-03-30T21:10:50.117Z,13.46
2019-03-30T21:13:19.721Z,13.16
2019-03-30T21:15:49.340Z,12.86
2019-03-30T21:18:18.982Z,12.72
2019-03-30T21:20:48.564Z,12.81
2019-03-30T21:23:18.633Z,12.99
2019-03-30T21:25:48.307Z,12.81
2019-03-30T21:28:18.472Z,12.73
2019-03-30T21:30:48.134Z,12.82
2019-03-30T21:33:18.523Z,12.53
2019-03-30T21:35:48.175Z,12.32
2019-03-30T21:38:18.214Z,12.18
2019-03-30T21:40:47.895Z,12.08
2019-03-30T21:43:19.719Z,12.00
2019-03-30T21:45:49.317Z,11.67
2019-03-30T21:48:18.908Z,11.67
2019-03-30T21:50:48.936Z,11.69
2019-03-30T21:53:18.589Z,11.60
2019-03-30T21:55:48.207Z,11.63
2019-03-30T21:58:18.255Z,11.72
2019-03-30T22:00:48.092Z,11.72
2019-03-30T22:03:17.798Z,11.60
2019-03-30T22:05:48.513Z,11.49
2019-03-30T22:08:18.181Z,11.49
2019-03-30T22:10:47.954Z,11.50
2019-03-30T22:13:17.545Z,11.43
2019-03-30T22:15:47.497Z,11.38
2019-03-30T22:18:17.219Z,11.33
2019-03-30T22:20:47.227Z,11.20
2019-03-30T22:23:16.817Z,11.19
2019-03-30T22:25:46.451Z,11.15
2019-03-30T22:28:16.099Z,11.08
2019-03-30T22:30:46.188Z,11.06
2019-03-30T22:33:15.785Z,10.95
2019-03-30T22:35:45.774Z,11.02
2019-03-30T22:38:15.650Z,10.99
2019-03-30T22:40:45.285Z,10.89
2019-03-30T22:43:15.503Z,10.79
2019-03-30T22:45:45.134Z,10.78
2019-03-30T22:48:15.045Z,10.83
2019-03-30T22:50:45.469Z,10.81
2019-03-30T22:53:15.089Z,10.82
2019-03-30T22:55:44.775Z,10.86
2019-03-30T22:58:14.803Z,10.93
2019-03-30T23:00:58.639Z,10.90
2019-03-30T23:03:28.538Z,10.83
2019-03-30T23:05:58.171Z,10.89
2019-03-30T23:08:28.494Z,10.91
2019-03-30T23:10:58.413Z,10.90
2019-03-30T23:13:28.029Z,10.82
2019-03-30T23:15:57.702Z,10.81
2019-03-30T23:18:27.309Z,10.78
2019-03-30T23:20:56.947Z,10.69
2019-03-30T23:23:26.975Z,10.75
2019-03-30T23:25:56.567Z,10.60
2019-03-30T23:28:26.571Z,10.58
2019-03-30T23:30:56.575Z,10.32
2019-03-30T23:33:26.480Z,10.37
2019-03-30T23:35:56.083Z,10.50
2019-03-30T23:38:25.646Z,10.47
2019-03-30T23:40:55.246Z,10.45
2019-03-30T23:43:24.825Z,10.48
2019-03-30T23:45:54.403Z,10.50
2019-03-30T23:48:24.069Z,10.48
2019-03-30T23:50:53.679Z,10.35
2019-03-30T23:53:23.296Z,10.30
2019-03-30T23:55:52.860Z,10.23
2019-03-30T23:58:22.435Z,10.08
